Airfield :
LOGIN :

Register | Disclaimer

   EN    FR    IT 

 










Legend :    VFR   Marginal VFR   IFR   Intensive IFR   Very Intensive IFR
Visi :
Ceiling :
>= 8 km
>= 3000ft
5 to 8 km
1000 to 3000 ft
1500m to 5 km
500 to 1000 ft
800 to 1500m
200 to 500 ft
< 800m
< 200 ft
Symbols :   Thunderstorms  Fog  Heavy snow  Heavy precipitations  Wind > 20 kt
SIGMETs :     Misc.  Thunderstorms  Icing  Turbulence  Mountain Waves  Volcanic Ashes






- Airport Elevation : 7 ft
- IATA code : XHE


LFTH - Hyeres

CURRENT METAR :
  • 220930Z AUTO 26016KT 220V280 CAVOK 26/15 Q1014 BECMG 27020G30KT

EXPIRED METARs :
  • 220900Z AUTO 25015KT 230V290 CAVOK 26/15 Q1014 BECMG 27020G30KT
  • 220830Z AUTO 25015KT CAVOK 25/15 Q1014 BECMG 27020G30KT
  • 220800Z AUTO 25014G24KT 220V280 CAVOK 25/15 Q1014 BECMG 29020G35KT
  • 220730Z AUTO 25013KT CAVOK 24/15 Q1014 BECMG 29020G35KT
  • 220700Z AUTO 24013KT CAVOK 24/14 Q1014 NOSIG
  • 220630Z AUTO 26009KT 240V300 CAVOK 23/14 Q1014 NOSIG
  • 220600Z AUTO 28010KT CAVOK 23/14 Q1014 NOSIG
  • 220530Z AUTO 30007KT 270V340 CAVOK 23/13 Q1014 NOSIG

TAF TAF LFTH
Valid from the 22 at 09:00 until the 23 at 09:00 UTC


220800Z 2209/2309 26017KT CAVOK
BECMG 2209/2212 27020G30KT
TEMPO 2212/2218 27030G40KT
BECMG 2218/2221 28015KT
BECMG 2305/2307 34008KT



MET'MAP, your aeronautical weather chart ! - Copyright ORBIFLY December 2007 - Disclaimer

ORBIFLY MET'MAP TEAM :

Programming & Development : Alexandra Zaïnal
Original concept : Baudouin d'Aumeries
Technical & hardware support : Manuel Goepfert
Assistance : Marc-Olivier Méhu




SOURCES & CREDITS :

   NOAA